Time;durP1;ratioP1;P1;durP2;ratioP2;P2;SDS_P1;SDS_P2;PMS_P1;PMS_P2;Temp;Humidity;BMP_temperature;BMP_pressure;BME280_temperature;BME280_humidity;BME280_pressure;Samples;Min_cycle;Max_cycle;Signal;HPM_P1;HPM_P2
2022/10/31 00:00:28;;;;;;;47.55;37.92;;;;;;;17.01;69.05;101402.16;4915265;28;120042;-76
2022/10/31 00:02:57;;;;;;;48.05;38.78;;;;;;;17.00;68.70;101403.41;4924209;28;119854;-76
2022/10/31 00:05:22;;;;;;;63.90;45.40;;;;;;;16.96;68.78;101408.38;4911517;28;120324;-76
2022/10/31 00:07:52;;;;;;;86.70;60.47;;;;;;;16.94;69.29;101411.63;4923927;28;119827;-77
2022/10/31 00:10:18;;;;;;;75.53;48.35;;;;;;;16.93;69.15;101418.41;4905850;28;120334;-77
2022/10/31 00:12:44;;;;;;;92.18;50.65;;;;;;;16.91;69.58;101411.81;4926821;28;119588;-77
2022/10/31 00:15:09;;;;;;;92.40;52.97;;;;;;;16.89;69.35;101415.06;4908125;28;121769;-77
2022/10/31 00:17:36;;;;;;;133.50;76.57;;;;;;;16.84;69.59;101415.75;4925107;28;120158;-77
2022/10/31 00:20:02;;;;;;;116.67;62.57;;;;;;;16.86;70.07;101422.31;4925439;28;119979;-76
2022/10/31 00:22:28;;;;;;;100.60;55.40;;;;;;;16.88;70.43;101430.16;4925106;28;120917;-77
2022/10/31 00:24:55;;;;;;;110.28;53.22;;;;;;;16.87;70.35;101428.63;4921469;28;120034;-76
2022/10/31 00:27:20;;;;;;;108.93;55.30;;;;;;;16.89;70.12;101431.69;4916296;28;120028;-76
2022/10/31 00:29:46;;;;;;;142.32;56.45;;;;;;;16.91;69.85;101429.22;4924096;28;119949;-77
2022/10/31 00:32:12;;;;;;;113.57;56.78;;;;;;;16.86;69.79;101427.09;4925987;28;120020;-78
2022/10/31 00:34:37;;;;;;;127.25;59.38;;;;;;;16.91;69.71;101429.22;4906867;28;120096;-77
2022/10/31 00:37:04;;;;;;;128.57;64.43;;;;;;;16.85;69.76;101431.13;4924723;28;121175;-76
2022/10/31 00:39:29;;;;;;;127.00;70.20;;;;;;;16.89;70.34;101437.25;4925601;28;120100;-78
2022/10/31 00:41:55;;;;;;;112.00;61.47;;;;;;;16.91;70.85;101445.84;4905784;28;120344;-77
2022/10/31 00:44:20;;;;;;;116.93;58.90;;;;;;;16.94;70.97;101444.88;4891625;28;119789;-78
2022/10/31 00:46:46;;;;;;;137.57;69.10;;;;;;;16.98;70.84;101444.69;4909506;28;119700;-78
2022/10/31 00:49:12;;;;;;;125.20;67.60;;;;;;;16.97;70.78;101438.38;4912140;28;120071;-77
2022/10/31 00:51:38;;;;;;;111.77;60.53;;;;;;;17.06;70.99;101430.00;4908330;28;119506;-77
2022/10/31 00:54:03;;;;;;;113.53;61.33;;;;;;;17.10;70.65;101438.13;4892461;28;119963;-75
2022/10/31 00:56:29;;;;;;;93.30;56.03;;;;;;;17.12;70.49;101439.16;4908903;28;121238;-78
2022/10/31 00:58:55;;;;;;;79.47;52.13;;;;;;;17.15;70.39;101440.97;4909975;28;120779;-76
2022/10/31 01:01:21;;;;;;;82.90;52.00;;;;;;;17.18;69.84;101453.13;4925666;28;119765;-77
2022/10/31 01:03:48;;;;;;;81.43;51.35;;;;;;;17.20;69.97;101464.50;4893838;28;120788;-77
2022/10/31 01:06:14;;;;;;;91.60;54.30;;;;;;;17.17;70.71;101452.34;4908130;28;119633;-76
2022/10/31 01:08:40;;;;;;;89.60;53.63;;;;;;;17.15;70.39;101440.97;4919317;28;120064;-77
2022/10/31 01:11:12;;;;;;;90.10;53.75;;;;;;;17.30;70.51;101454.84;4911490;28;120198;-76
2022/10/31 01:13:39;;;;;;;91.18;55.28;;;;;;;17.35;70.69;101456.94;4907462;28;120248;-76
2022/10/31 01:16:08;;;;;;;90.60;54.60;;;;;;;17.40;70.87;101449.97;4922880;28;120575;-77
2022/10/31 01:18:35;;;;;;;82.87;51.30;;;;;;;17.36;70.54;101438.31;4922918;28;120371;-77
2022/10/31 01:21:08;;;;;;;85.28;50.80;;;;;;;17.46;70.17;101445.28;4928053;28;119952;-76
2022/10/31 01:23:34;;;;;;;81.72;51.35;;;;;;;17.48;70.37;101449.09;4925699;28;119991;-77
2022/10/31 01:26:00;;;;;;;82.80;50.78;;;;;;;17.50;69.96;101445.84;4909153;28;120184;-77
2022/10/31 01:28:26;;;;;;;78.82;51.17;;;;;;;17.54;70.18;101451.22;4927340;28;119951;-77
2022/10/31 01:30:51;;;;;;;77.55;50.20;;;;;;;17.53;69.77;101453.22;4926657;28;120308;-77
2022/10/31 01:33:17;;;;;;;77.47;48.78;;;;;;;17.53;69.67;101455.22;4902862;28;120502;-77
2022/10/31 01:35:43;;;;;;;75.78;48.92;;;;;;;17.55;69.95;101459.06;4897298;28;120479;-76
2022/10/31 01:38:08;;;;;;;76.53;47.65;;;;;;;17.54;69.85;101468.63;4894830;28;120803;-77
2022/10/31 01:40:34;;;;;;;73.53;47.50;;;;;;;17.54;69.78;101468.63;4911596;28;120040;-77
2022/10/31 01:43:00;;;;;;;79.60;49.90;;;;;;;17.56;70.09;101468.13;4920134;28;119867;-77
2022/10/31 01:45:25;;;;;;;74.87;47.57;;;;;;;17.56;70.45;101468.91;4927566;28;120360;-77
2022/10/31 01:47:51;;;;;;;68.50;45.60;;;;;;;17.60;70.00;101460.38;4925526;28;119866;-78
2022/10/31 01:50:31;;;;;;;72.17;46.63;;;;;;;17.57;69.95;101461.34;4896690;28;122440;-77
2022/10/31 01:52:59;;;;;;;69.00;45.38;;;;;;;17.60;70.00;101466.69;4908956;28;120086;-76
2022/10/31 01:55:36;;;;;;;72.72;47.90;;;;;;;17.62;70.17;101468.97;4919481;28;120476;-77
2022/10/31 01:58:16;;;;;;;73.93;46.13;;;;;;;17.64;69.86;101467.25;4915703;28;120118;-77
2022/10/31 02:00:48;;;;;;;73.30;46.80;;;;;;;17.64;69.58;101472.81;4911745;28;120027;-77
2022/10/31 02:03:15;;;;;;;73.22;44.70;;;;;;;17.64;68.69;101477.59;4922941;28;119908;-77
2022/10/31 02:05:46;;;;;;;75.25;46.83;;;;;;;17.60;68.88;101477.78;4896020;28;121099;-76
2022/10/31 02:08:15;;;;;;;71.90;46.85;;;;;;;17.57;68.99;101481.53;4925375;28;119789;-77
2022/10/31 02:10:43;;;;;;;72.47;45.55;;;;;;;17.54;68.95;101485.25;4929317;28;120139;-78
2022/10/31 02:13:09;;;;;;;75.27;46.23;;;;;;;17.41;68.84;101470.91;4910061;28;120788;-77
2022/10/31 02:15:46;;;;;;;70.40;43.63;;;;;;;17.42;68.44;101477.97;4916087;28;119923;-77
2022/10/31 02:18:13;;;;;;;78.13;46.38;;;;;;;17.40;68.30;101492.34;4910740;28;119661;-77
2022/10/31 02:21:00;;;;;;;85.37;47.90;;;;;;;17.34;68.59;101490.72;4914958;28;120988;-77
2022/10/31 02:23:53;;;;;;;85.70;49.05;;;;;;;17.28;68.69;101489.84;4922331;28;120022;-77
2022/10/31 02:26:40;;;;;;;86.90;49.13;;;;;;;17.22;68.47;101486.19;4901645;28;120151;-77
2022/10/31 02:29:12;;;;;;;85.35;49.50;;;;;;;17.13;68.54;101490.59;4912550;28;121068;-77
2022/10/31 02:31:50;;;;;;;81.32;45.38;;;;;;;17.08;68.38;101499.56;4892564;28;121396;-77
2022/10/31 02:34:20;;;;;;;89.97;50.65;;;;;;;17.01;68.54;101504.72;4926869;28;119702;-77
2022/10/31 02:37:01;;;;;;;82.07;46.28;;;;;;;16.94;68.27;101499.53;4909758;28;120485;-77
2022/10/31 02:39:56;;;;;;;85.55;48.42;;;;;;;16.89;68.66;101509.28;4925822;28;120191;-77
2022/10/31 02:42:56;;;;;;;93.45;50.70;;;;;;;16.82;68.85;101501.34;4908333;28;120307;-77
2022/10/31 02:45:24;;;;;;;84.57;48.20;;;;;;;16.77;68.63;101504.75;4911964;28;120411;-77
2022/10/31 02:47:56;;;;;;;76.60;45.33;;;;;;;16.73;68.75;101506.94;4924562;28;120492;-78
2022/10/31 02:50:28;;;;;;;80.07;46.03;;;;;;;16.64;68.73;101504.22;4927930;28;119611;-77
2022/10/31 02:53:15;;;;;;;85.20;48.53;;;;;;;16.57;68.93;101500.56;4919449;28;119832;-77
2022/10/31 02:55:50;;;;;;;92.87;49.17;;;;;;;16.55;69.15;101516.88;4915499;28;120765;-76
2022/10/31 02:58:23;;;;;;;89.38;47.97;;;;;;;16.49;68.82;101509.69;4906385;28;120539;-77
2022/10/31 03:01:09;;;;;;;92.85;47.97;;;;;;;16.48;68.57;101525.53;4903865;28;121579;-77
2022/10/31 03:03:44;;;;;;;92.35;50.17;;;;;;;16.43;68.59;101517.13;4916053;28;120201;-76
2022/10/31 03:06:20;;;;;;;93.65;50.15;;;;;;;16.37;68.88;101513.47;4925506;28;119918;-76
2022/10/31 03:08:57;;;;;;;93.32;50.22;;;;;;;16.33;68.78;101512.88;4922479;28;119883;-77
2022/10/31 03:11:32;;;;;;;88.82;48.60;;;;;;;16.25;68.87;101517.97;4924955;28;119941;-77
2022/10/31 03:14:09;;;;;;;92.93;49.60;;;;;;;16.26;69.19;101527.81;4908946;28;120752;-77
2022/10/31 03:16:51;;;;;;;90.03;50.83;;;;;;;16.22;69.30;101522.44;4911544;28;120154;-77
2022/10/31 03:19:26;;;;;;;85.53;49.03;;;;;;;16.20;69.08;101524.94;4926321;28;120267;-77
2022/10/31 03:22:12;;;;;;;80.38;49.63;;;;;;;16.14;68.84;101518.50;4892690;28;122011;-76
2022/10/31 03:24:41;;;;;;;82.18;49.15;;;;;;;16.14;69.03;101531.56;4908253;28;119826;-77
2022/10/31 03:27:12;;;;;;;74.20;47.53;;;;;;;16.10;68.71;101528.22;4912328;28;120021;-78
2022/10/31 03:29:42;;;;;;;72.67;50.70;;;;;;;16.07;69.08;101527.13;4925512;28;119849;-75
2022/10/31 03:32:20;;;;;;;66.45;46.75;;;;;;;16.02;69.10;101536.06;4912721;28;119634;-77
2022/10/31 03:34:51;;;;;;;64.18;46.92;;;;;;;15.99;68.86;101539.78;4909187;28;120176;-78
2022/10/31 03:37:20;;;;;;;64.63;46.67;;;;;;;15.98;68.82;101545.78;4911463;28;120003;-77
2022/10/31 03:39:48;;;;;;;70.27;48.27;;;;;;;15.92;68.83;101540.88;4913212;28;120731;-77
2022/10/31 03:42:17;;;;;;;74.20;49.38;;;;;;;15.77;69.30;101528.94;4908382;28;119769;-76
2022/10/31 03:44:48;;;;;;;60.07;45.60;;;;;;;15.86;69.05;101550.28;4930179;28;120062;-78
2022/10/31 03:47:14;;;;;;;63.00;46.35;;;;;;;15.79;69.22;101551.38;4908498;28;119827;-75
2022/10/31 03:49:40;;;;;;;67.75;47.03;;;;;;;15.80;69.45;101552.91;4911992;28;119933;-78
2022/10/31 03:52:37;;;;;;;61.20;44.77;;;;;;;15.82;69.10;101560.72;4910748;28;120130;-78
2022/10/31 03:55:12;;;;;;;63.20;45.73;;;;;;;15.79;69.16;101565.19;4909363;28;121466;-77
2022/10/31 03:58:40;;;;;;;58.67;46.00;;;;;;;15.79;69.14;101565.19;4909048;28;119537;-77
2022/10/31 04:01:11;;;;;;;63.13;47.00;;;;;;;15.74;69.10;101574.13;4848433;28;119633;-78
2022/10/31 04:03:39;;;;;;;59.22;44.42;;;;;;;15.74;69.20;101571.34;4902170;28;119802;-78
2022/10/31 04:06:11;;;;;;;56.83;41.85;;;;;;;15.70;68.97;101578.28;4909998;28;119349;-78
2022/10/31 04:08:44;;;;;;;58.83;43.20;;;;;;;15.70;68.89;101581.06;4911146;28;119908;-77
2022/10/31 04:11:18;;;;;;;63.95;44.88;;;;;;;15.68;69.27;101587.06;4910508;28;120876;-78
2022/10/31 04:13:48;;;;;;;59.50;42.13;;;;;;;15.65;68.90;101582.44;4898406;28;119903;-77
2022/10/31 04:16:21;;;;;;;55.03;40.60;;;;;;;15.62;68.67;101586.91;4892821;28;120000;-78
2022/10/31 04:18:47;;;;;;;50.30;37.25;;;;;;;15.57;69.15;101581.19;4926145;28;119907;-77
2022/10/31 04:21:13;;;;;;;50.00;37.80;;;;;;;15.48;68.87;101562.63;4880378;28;121498;-78
2022/10/31 04:23:38;;;;;;;59.88;41.05;;;;;;;15.54;68.81;101576.59;4926308;28;120542;-77
2022/10/31 04:26:13;;;;;;;63.70;42.73;;;;;;;15.48;68.51;101579.22;4910023;28;119848;-77
2022/10/31 04:28:38;;;;;;;59.47;41.43;;;;;;;15.44;68.67;101578.59;4909414;28;120379;-77
2022/10/31 04:31:04;;;;;;;55.55;39.75;;;;;;;15.45;69.14;101587.66;4915261;28;120689;-77
2022/10/31 04:33:33;;;;;;;58.60;38.70;;;;;;;15.44;68.91;101595.19;4925379;28;120968;-75
2022/10/31 04:35:58;;;;;;;79.32;45.22;;;;;;;15.45;69.69;101593.19;4924632;28;120395;-77
2022/10/31 04:38:24;;;;;;;86.28;45.03;;;;;;;15.48;70.27;101601.31;4913077;28;119824;-75
2022/10/31 04:40:50;;;;;;;75.55;43.08;;;;;;;15.52;70.20;101601.94;4901266;28;120845;-78
2022/10/31 04:43:16;;;;;;;72.82;42.67;;;;;;;15.54;69.95;101601.47;4923984;28;119929;-77
2022/10/31 04:45:43;;;;;;;69.43;42.50;;;;;;;15.54;69.98;101593.94;4894157;28;120288;-77
2022/10/31 04:48:09;;;;;;;67.07;42.42;;;;;;;15.57;69.77;101601.31;4900389;28;120165;-77
2022/10/31 04:50:36;;;;;;;58.40;38.85;;;;;;;15.56;68.76;101596.25;4908747;28;119583;-78
2022/10/31 04:53:01;;;;;;;58.72;38.67;;;;;;;15.51;68.46;101596.88;4918857;28;119854;-77
2022/10/31 04:55:32;;;;;;;55.45;38.10;;;;;;;15.41;68.34;101589.81;4915699;28;119888;-76
2022/10/31 04:58:30;;;;;;;67.53;44.10;;;;;;;15.35;68.64;101595.94;4938341;28;119735;-77
2022/10/31 05:01:23;;;;;;;71.80;46.30;;;;;;;15.26;69.25;101582.13;4897013;28;119605;-77
2022/10/31 05:03:49;;;;;;;68.75;43.90;;;;;;;15.28;69.29;101590.72;4909292;28;120361;-77
2022/10/31 05:06:16;;;;;;;69.83;43.57;;;;;;;15.26;69.30;101584.91;4892313;28;119941;-77
2022/10/31 05:08:42;;;;;;;77.17;43.60;;;;;;;15.23;68.99;101576.78;4909811;28;120549;-75
2022/10/31 05:11:09;;;;;;;87.30;42.60;;;;;;;15.22;69.29;101589.06;4912252;28;120341;-77
2022/10/31 05:13:36;;;;;;;92.57;42.42;;;;;;;15.12;68.90;101577.22;4913013;28;119624;-77
2022/10/31 05:16:26;;;;;;;100.63;43.60;;;;;;;15.14;69.44;101587.81;4924346;28;119824;-78
2022/10/31 05:19:19;;;;;;;91.88;43.78;;;;;;;15.12;69.42;101593.78;4915158;28;120651;-76
2022/10/31 05:22:49;;;;;;;79.10;43.63;;;;;;;15.08;69.53;101598.69;4907047;28;120372;-76
2022/10/31 05:25:15;;;;;;;90.20;47.95;;;;;;;15.06;69.48;101598.41;4885653;28;122257;-75
2022/10/31 05:27:43;;;;;;;86.38;50.50;;;;;;;15.03;69.93;101602.09;4893623;28;120115;-75
2022/10/31 05:30:10;;;;;;;80.70;50.30;;;;;;;15.00;70.62;101616.81;4889277;28;119805;-76
2022/10/31 05:32:39;;;;;;;87.00;51.38;;;;;;;14.97;70.11;101607.44;4892008;28;119815;-76
2022/10/31 05:35:33;;;;;;;87.35;54.30;;;;;;;14.96;71.19;101610.69;4896698;28;119674;-75
2022/10/31 05:38:22;;;;;;;89.68;50.53;;;;;;;14.96;71.10;101613.44;4906021;28;120359;-76
2022/10/31 05:40:48;;;;;;;85.10;49.67;;;;;;;15.00;71.21;101605.75;4887649;28;120403;-75
2022/10/31 05:43:14;;;;;;;94.78;51.75;;;;;;;15.02;71.01;101604.06;4894257;28;119611;-76
2022/10/31 05:45:40;;;;;;;92.43;51.37;;;;;;;15.07;70.80;101607.44;4873254;28;122112;-74
2022/10/31 05:48:11;;;;;;;108.30;54.83;;;;;;;15.11;71.99;101608.06;4874135;28;120222;-75
2022/10/31 05:50:55;;;;;;;116.72;56.75;;;;;;;15.14;71.74;101610.69;4907432;28;120067;-76
2022/10/31 05:53:22;;;;;;;126.77;58.30;;;;;;;15.15;70.92;101615.00;4890538;28;120294;-75
2022/10/31 05:55:47;;;;;;;133.57;56.70;;;;;;;15.18;71.32;101616.84;4909710;28;120220;-75
2022/10/31 05:58:18;;;;;;;114.97;54.22;;;;;;;15.21;71.36;101623.44;4918703;28;119693;-75
2022/10/31 06:01:00;;;;;;;107.70;54.97;;;;;;;15.22;71.19;101616.69;4910407;28;120075;-75
2022/10/31 06:03:26;;;;;;;98.82;51.63;;;;;;;15.20;70.88;101617.16;4884072;28;119884;-74
2022/10/31 06:05:55;;;;;;;106.57;53.70;;;;;;;15.18;70.80;101614.09;4928099;28;119790;-76
2022/10/31 06:08:36;;;;;;;95.07;52.55;;;;;;;15.16;70.67;101624.84;4915818;28;120889;-75
2022/10/31 06:11:05;;;;;;;94.60;51.78;;;;;;;15.13;70.04;101622.19;4908960;28;119918;-76
2022/10/31 06:13:49;;;;;;;100.15;54.00;;;;;;;15.11;70.39;101617.13;4920959;28;119887;-75
2022/10/31 06:16:20;;;;;;;104.50;56.08;;;;;;;15.04;70.63;101623.72;4909102;28;120287;-76
2022/10/31 06:18:47;;;;;;;107.70;52.80;;;;;;;15.03;70.42;101624.94;4897147;28;119396;-76
2022/10/31 06:21:13;;;;;;;87.68;50.70;;;;;;;15.00;70.38;101636.16;4905142;28;120217;-74
2022/10/31 06:23:38;;;;;;;90.97;52.47;;;;;;;15.00;70.43;101638.91;4908320;28;120527;-74
2022/10/31 06:26:23;;;;;;;89.57;50.90;;;;;;;14.99;70.68;101642.91;4932022;28;119722;-75
2022/10/31 06:28:50;;;;;;;91.85;49.92;;;;;;;14.98;70.42;101638.59;4912689;28;119988;-76
2022/10/31 06:31:39;;;;;;;98.72;53.47;;;;;;;15.04;71.55;101645.81;4908295;28;120136;-76
2022/10/31 06:34:04;;;;;;;101.00;52.80;;;;;;;14.95;71.13;101634.78;4897021;28;121177;-75
2022/10/31 06:36:31;;;;;;;106.32;53.83;;;;;;;15.09;71.37;101646.44;4929151;28;119999;-76
2022/10/31 06:38:57;;;;;;;103.72;53.28;;;;;;;15.10;71.58;101654.28;4934332;28;119741;-78
2022/10/31 06:41:23;;;;;;;97.80;50.97;;;;;;;15.14;71.47;101657.69;4908754;28;120142;-77
2022/10/31 06:43:50;;;;;;;104.18;50.13;;;;;;;15.19;71.74;101665.38;4917984;28;119408;-76
2022/10/31 06:46:38;;;;;;;106.07;48.75;;;;;;;15.22;71.02;101669.97;4923476;28;120125;-76
2022/10/31 06:49:16;;;;;;;94.05;48.95;;;;;;;15.25;71.02;101666.28;4912826;28;120252;-77
2022/10/31 06:51:50;;;;;;;93.03;49.70;;;;;;;15.28;71.27;101667.34;4930691;28;120443;-75
2022/10/31 06:54:16;;;;;;;86.53;49.60;;;;;;;15.32;71.25;101665.97;4908653;28;120147;-75
2022/10/31 06:56:42;;;;;;;83.50;45.28;;;;;;;15.36;70.85;101672.13;4926104;28;119909;-75
2022/10/31 06:59:08;;;;;;;70.95;46.35;;;;;;;15.33;70.87;101667.50;4910138;28;120170;-77
2022/10/31 07:02:32;;;;;;;73.57;46.47;;;;;;;15.39;70.56;101670.47;4884633;28;120303;-77
2022/10/31 07:04:58;;;;;;;74.57;45.53;;;;;;;15.42;70.81;101668.78;4895265;28;119918;-78
2022/10/31 07:07:24;;;;;;;67.45;44.65;;;;;;;15.47;70.67;101676.44;4906160;28;119825;-77
2022/10/31 07:09:50;;;;;;;71.45;47.10;;;;;;;15.48;71.40;101670.44;4910412;28;120541;-78
2022/10/31 07:12:37;;;;;;;73.38;47.88;;;;;;;15.57;71.81;101678.75;4916377;28;119644;-74
2022/10/31 07:15:04;;;;;;;59.35;41.90;;;;;;;15.64;71.44;101678.47;4909006;28;120509;-75
2022/10/31 07:17:30;;;;;;;56.97;40.33;;;;;;;15.73;71.35;101683.22;4906107;28;119719;-74
2022/10/31 07:19:58;;;;;;;50.55;39.15;;;;;;;15.79;70.71;101686.91;4894122;28;121739;-77
2022/10/31 07:22:32;;;;;;;50.78;37.97;;;;;;;15.83;70.48;101684.75;4923359;28;120216;-77
2022/10/31 07:24:58;;;;;;;50.65;39.22;;;;;;;15.84;70.54;101691.81;4919376;28;120310;-78
2022/10/31 07:27:43;;;;;;;47.65;36.63;;;;;;;15.90;70.46;101700.28;4921675;28;120175;-78
2022/10/31 07:30:13;;;;;;;51.03;39.08;;;;;;;15.94;70.94;101704.44;4920078;28;119893;-77
2022/10/31 07:32:44;;;;;;;48.72;37.83;;;;;;;15.97;70.95;101694.44;4906744;28;120726;-78
2022/10/31 07:35:26;;;;;;;44.53;34.78;;;;;;;16.01;70.20;101697.03;4897007;28;120314;-77
2022/10/31 07:38:11;;;;;;;43.72;34.67;;;;;;;16.05;70.29;101703.19;4910129;28;120016;-76
2022/10/31 07:40:37;;;;;;;48.65;35.95;;;;;;;16.09;71.14;101701.00;4907312;28;120103;-76
2022/10/31 07:43:04;;;;;;;45.67;34.47;;;;;;;16.15;70.92;101704.72;4904450;28;120386;-77
2022/10/31 07:45:51;;;;;;;44.58;35.22;;;;;;;16.29;71.43;101712.34;4918934;28;119741;-75
2022/10/31 07:48:46;;;;;;;45.80;33.78;;;;;;;16.36;70.97;101705.75;4885385;28;120050;-78
2022/10/31 07:51:50;;;;;;;45.92;34.55;;;;;;;16.43;71.08;101710.94;4921757;28;120907;-76
2022/10/31 07:54:34;;;;;;;42.90;32.33;;;;;;;16.56;70.81;101712.31;4921413;28;119564;-75
2022/10/31 07:57:00;;;;;;;49.47;33.83;;;;;;;16.62;70.68;101711.66;4903002;28;120401;-78
2022/10/31 07:59:27;;;;;;;50.35;34.97;;;;;;;16.66;71.56;101703.94;4924197;28;120616;-77
2022/10/31 08:01:56;;;;;;;43.75;33.03;;;;;;;16.77;71.09;101705.00;4904333;28;119810;-77
2022/10/31 08:04:31;;;;;;;43.65;32.42;;;;;;;16.78;70.47;101703.75;4920439;28;120155;-77
2022/10/31 08:07:15;;;;;;;42.47;31.95;;;;;;;16.82;70.31;101711.94;4921067;28;120562;-74
2022/10/31 08:09:49;;;;;;;42.00;32.30;;;;;;;16.82;70.30;101709.94;4900063;28;119805;-76
2022/10/31 08:12:21;;;;;;;45.17;33.22;;;;;;;16.84;70.56;101715.00;4888150;28;122735;-78
2022/10/31 08:14:46;;;;;;;43.00;32.70;;;;;;;16.84;70.68;101720.53;4902968;28;120191;-78
2022/10/31 08:17:14;;;;;;;43.10;32.70;;;;;;;16.86;70.51;101724.38;4899957;28;119994;-77
2022/10/31 08:19:52;;;;;;;40.53;31.97;;;;;;;16.88;70.63;101729.44;4915562;28;120652;-75
2022/10/31 08:22:21;;;;;;;45.42;31.08;;;;;;;16.90;70.31;101729.75;4905549;28;120025;-77
2022/10/31 08:24:48;;;;;;;41.05;30.27;;;;;;;16.88;69.64;101732.22;4905133;28;120720;-75
2022/10/31 08:27:14;;;;;;;42.78;31.52;;;;;;;16.85;69.99;101735.94;4902634;28;120750;-77
2022/10/31 08:29:51;;;;;;;34.17;29.47;;;;;;;16.86;70.22;101727.16;4899939;28;120276;-78
2022/10/31 08:32:17;;;;;;;37.70;31.17;;;;;;;16.89;70.21;101728.22;4883174;28;120774;-75
2022/10/31 08:35:01;;;;;;;36.87;30.73;;;;;;;16.87;69.74;101725.13;4916819;28;120198;-75
2022/10/31 08:37:52;;;;;;;36.70;29.50;;;;;;;16.85;69.41;101730.38;4916524;28;120068;-76
2022/10/31 08:40:17;;;;;;;39.65;31.27;;;;;;;16.77;69.72;101729.94;4916415;28;120219;-75
2022/10/31 08:42:43;;;;;;;45.50;34.03;;;;;;;16.80;70.05;101714.41;4905607;28;120235;-77
2022/10/31 08:45:09;;;;;;;42.88;32.50;;;;;;;16.85;70.31;101710.97;4893528;28;120305;-80
2022/10/31 08:47:35;;;;;;;43.55;32.78;;;;;;;16.92;70.06;101718.94;4894231;28;120170;-77
2022/10/31 08:50:01;;;;;;;44.53;32.88;;;;;;;16.99;70.31;101717.84;4896424;28;119659;-78
2022/10/31 08:52:28;;;;;;;48.08;33.22;;;;;;;17.03;70.54;101713.66;4899856;28;120268;-79
2022/10/31 08:54:59;;;;;;;49.67;33.25;;;;;;;17.10;70.53;101720.88;4896214;28;120472;-79
2022/10/31 08:57:55;;;;;;;47.58;33.03;;;;;;;17.17;70.29;101723.28;4913053;28;119550;-78
2022/10/31 09:00:26;;;;;;;46.00;33.97;;;;;;;17.15;70.19;101720.97;4898205;28;120156;-75
2022/10/31 09:03:06;;;;;;;46.72;32.42;;;;;;;17.21;70.50;101723.09;4899836;28;120189;-78
2022/10/31 09:05:33;;;;;;;46.45;30.67;;;;;;;17.19;70.39;101710.47;4901130;28;119949;-76
2022/10/31 09:08:00;;;;;;;51.88;30.00;;;;;;;17.18;70.44;101708.19;4916708;28;120854;-78
2022/10/31 09:10:43;;;;;;;57.90;30.52;;;;;;;17.27;70.68;101708.16;4890667;28;120306;-76
2022/10/31 09:13:12;;;;;;;57.43;29.47;;;;;;;17.30;70.76;101706.44;4910439;28;119712;-78
2022/10/31 09:16:04;;;;;;;53.88;29.20;;;;;;;17.43;70.85;101718.03;4866576;28;119964;-78
2022/10/31 09:18:31;;;;;;;47.00;27.23;;;;;;;17.45;70.40;101712.78;4899179;28;121451;-78
2022/10/31 09:20:59;;;;;;;57.15;28.88;;;;;;;17.51;70.36;101719.22;4896551;28;120334;-78
2022/10/31 09:23:27;;;;;;;54.17;31.23;;;;;;;17.56;70.92;101724.13;4925158;28;119790;-78
2022/10/31 09:25:53;;;;;;;46.35;30.80;;;;;;;17.66;71.00;101716.47;4891888;28;121074;-78
2022/10/31 09:28:36;;;;;;;46.33;29.42;;;;;;;17.73;70.14;101716.91;4910191;28;120308;-75
2022/10/31 09:31:08;;;;;;;41.50;27.75;;;;;;;17.78;69.64;101705.16;4910972;28;119661;-78
2022/10/31 09:33:57;;;;;;;41.60;28.58;;;;;;;17.84;69.66;101710.03;4902517;28;120851;-76
2022/10/31 09:36:45;;;;;;;46.20;29.77;;;;;;;17.88;69.66;101703.06;4931753;28;119916;-78
2022/10/31 09:39:19;;;;;;;46.60;29.98;;;;;;;17.94;69.78;101705.94;4904917;28;119951;-75
2022/10/31 09:42:23;;;;;;;47.08;29.70;;;;;;;17.99;69.85;101710.84;4906846;28;120074;-78
2022/10/31 09:45:06;;;;;;;44.90;28.92;;;;;;;18.05;69.75;101701.38;4914380;28;120479;-76
2022/10/31 09:47:56;;;;;;;42.92;28.27;;;;;;;18.11;70.20;101704.22;4918979;28;119901;-78
2022/10/31 09:50:47;;;;;;;45.72;26.25;;;;;;;18.19;70.02;101699.81;4929476;28;120099;-78
2022/10/31 09:53:55;;;;;;;44.75;26.42;;;;;;;18.27;70.00;101701.00;4936010;28;120298;-78
2022/10/31 09:56:24;;;;;;;38.47;25.00;;;;;;;18.35;69.62;101698.59;4914654;28;120140;-78
2022/10/31 09:58:55;;;;;;;39.30;25.13;;;;;;;18.41;69.68;101700.19;4917855;28;120213;-76
2022/10/31 10:01:27;;;;;;;38.93;24.93;;;;;;;18.52;69.76;101701.63;4927577;28;119839;-77
2022/10/31 10:03:58;;;;;;;39.97;25.67;;;;;;;18.59;70.08;101709.56;4909077;28;120311;-77
2022/10/31 10:06:53;;;;;;;36.40;23.35;;;;;;;18.70;69.72;101704.22;4916827;28;119931;-77
2022/10/31 10:09:37;;;;;;;35.47;22.70;;;;;;;18.80;69.79;101708.41;4942719;28;120087;-77
2022/10/31 10:12:52;;;;;;;34.90;21.70;;;;;;;18.90;69.48;101709.81;4919205;28;120241;-78
2022/10/31 10:15:23;;;;;;;35.03;20.83;;;;;;;18.99;69.08;101709.72;4942753;28;119591;-78
2022/10/31 10:18:24;;;;;;;32.00;21.47;;;;;;;19.07;68.85;101714.84;4911859;28;120067;-77
2022/10/31 10:21:25;;;;;;;32.40;21.53;;;;;;;19.13;69.00;101713.69;4912413;28;119999;-78
2022/10/31 10:23:57;;;;;;;34.03;21.37;;;;;;;19.22;69.67;101710.78;4925232;28;120283;-78
2022/10/31 10:26:40;;;;;;;36.80;21.63;;;;;;;19.33;70.01;101710.16;4930931;28;120656;-78
2022/10/31 10:29:27;;;;;;;29.63;17.98;;;;;;;19.30;70.03;101711.88;4925862;28;120419;-77
2022/10/31 10:31:55;;;;;;;32.05;18.55;;;;;;;19.39;70.08;101710.97;4926167;28;119910;-78
2022/10/31 10:34:31;;;;;;;30.92;18.40;;;;;;;19.44;69.65;101706.75;4918358;28;120376;-77
2022/10/31 10:37:02;;;;;;;34.80;18.23;;;;;;;19.38;69.84;101692.75;4928381;28;120562;-77
2022/10/31 10:39:43;;;;;;;30.33;18.00;;;;;;;19.45;69.41;101703.47;4929631;28;120060;-77
2022/10/31 10:48:09;;;;;;;26.25;14.82;;;;;;;19.30;69.32;101700.75;4927973;28;120842;-77
2022/10/31 10:50:41;;;;;;;26.58;15.32;;;;;;;19.30;69.89;101694.44;4913064;28;120164;-77
2022/10/31 10:53:59;;;;;;;27.52;12.93;;;;;;;19.35;69.39;101699.28;4924634;28;119593;-78
2022/10/31 10:57:06;;;;;;;26.02;12.38;;;;;;;19.39;69.74;101694.28;4902786;28;120044;-78
2022/10/31 10:59:31;;;;;;;22.17;9.90;;;;;;;19.41;69.33;101688.25;4933434;28;120048;-77
2022/10/31 11:01:58;;;;;;;26.30;10.63;;;;;;;19.43;69.26;101699.66;4903369;28;121289;-77
2022/10/31 11:04:24;;;;;;;36.20;9.60;;;;;;;19.44;69.14;101701.94;4933230;28;120374;-78
2022/10/31 11:06:58;;;;;;;18.25;8.07;;;;;;;19.47;68.93;101698.19;4913982;28;119836;-78
2022/10/31 11:09:23;;;;;;;22.73;7.18;;;;;;;19.49;68.81;101701.25;4913794;28;120469;-78
2022/10/31 11:11:49;;;;;;;17.23;6.18;;;;;;;19.48;68.33;101694.16;4908547;28;119859;-77
2022/10/31 11:14:17;;;;;;;25.50;8.80;;;;;;;19.46;68.21;101696.66;4937310;28;119187;-77
2022/10/31 11:16:47;;;;;;;19.45;7.28;;;;;;;19.48;68.92;101691.38;4932607;28;120816;-78
2022/10/31 11:19:26;;;;;;;19.73;6.18;;;;;;;19.52;68.31;101688.38;4911108;28;120220;-78
2022/10/31 11:21:53;;;;;;;26.48;7.40;;;;;;;19.53;68.32;101685.13;4916691;28;120094;-77
2022/10/31 11:24:27;;;;;;;21.42;6.03;;;;;;;19.53;67.72;101687.13;4929751;28;120191;-78
2022/10/31 11:27:11;;;;;;;16.75;4.85;;;;;;;19.47;67.77;101683.50;4933770;28;119983;-77
2022/10/31 11:29:36;;;;;;;18.00;6.35;;;;;;;19.53;68.19;101695.47;4930661;28;120455;-78
2022/10/31 11:32:02;;;;;;;24.35;5.93;;;;;;;19.53;68.11;101698.25;4914733;28;120019;-78
2022/10/31 11:34:45;;;;;;;18.30;5.88;;;;;;;19.57;68.18;101696.81;4929510;28;120344;-78
2022/10/31 11:37:16;;;;;;;19.92;5.88;;;;;;;19.63;68.23;101700.41;4917002;28;120588;-77